Nearby METAR Reports

 

K1V6 - Canon City, Colorado, USA
Distance from station: E 5mi, 8km
Updated: Tue, 20-Aug-2019 10:50am MDT
Clear
Clear
 Wind from W
Wind: W 15 mph , 24 km/h
Temperature: 95°F , 35°C
Dew Point: 34°F , 1°C
Humidity: 11%
Barometer: 30.16 inHg , 1021.3 hPa
Clouds: Clear
Visibility: 10 miles , 16 km
2019/08/20 16:50 K1V6 201650Z AUTO 27013KT 10SM CLR 35/01 A3016 RMK AO2
KFCS - Fort Carson, Colorado, USA
Distance from station: NE 28mi, 44km
Updated: Tue, 20-Aug-2019 10:58am MDT
Few Clouds
Few Clouds
 Wind from SE
Wind: SE 12 mph , 19 km/h, Gust: 22 mph , 35 km/h
Temperature: 90°F , 32°C
Dew Point: 41°F , 5°C
Humidity: 18%
Barometer: 30.20 inHg , 1022.7 hPa
Clouds: Few Clouds
Visibility: 10 miles , 16 km
Cloud details: Few Clouds 15000 ft
2019/08/20 16:58 KFCS 201658Z AUTO 14010G19KT 10SM FEW150 32/05 A3020 RMK AO2 SLP153 T03190046 $
 
KCWN - Cheyenne Mtn, Colorado, USA
Distance from station: NE 28mi, 45km
Updated: Tue, 20-Aug-2019 10:58am MDT
Mostly cloudy
Mostly cloudy
 Wind from NE
Wind: NE 7 mph , 11 km/h
Temperature: 84°F , 29°C
Dew Point: 34°F , 1°C
Humidity: 16%
Barometer: 30.26 inHg , 1024.7 hPa
Clouds: Mostly cloudy
Visibility: 10 miles , 16 km
Cloud details: Mostly cloudy 14000 ft
2019/08/20 16:58 KCWN 201658Z AUTO 04006KT 10SM BKN140 29/01 A3026 RMK AO2 SLP043 T02920013 $
KCOS - Colorado Springs, Colorado, USA
Distance from station: NE 38mi, 60km
Updated: Tue, 20-Aug-2019 10:54am MDT
Partly cloudy
Partly cloudy
 Wind from SE
Wind: SE 15 mph , 24 km/h, Gust: 22 mph , 35 km/h
Temperature: 88°F , 31°C
Dew Point: 41°F , 5°C
Humidity: 19%
Barometer: 30.24 inHg , 1024 hPa
Clouds: Partly cloudy
Visibility: 10 miles , 16 km
Cloud details: Partly cloudy 14000 ft
Partly cloudy 25000 ft
2019/08/20 16:54 KCOS 201654Z 14013G19KT 10SM SCT140 SCT250 31/05 A3024 RMK AO2 SLP134 T03110050
 
KPUB - Pueblo, Colorado, USA
Distance from station: ESE 39mi, 63km
Updated: Tue, 20-Aug-2019 10:53am MDT
Clear
Clear
 Wind from SSE
Wind: SSE 6 mph , 9 km/h
Temperature: 90°F , 32°C
Dew Point: 52°F , 11°C
Humidity: 27%
Barometer: 30.11 inHg , 1019.6 hPa
Clouds: Clear
Visibility: 10 miles , 16 km
2019/08/20 16:53 KPUB 201653Z 15005KT 10SM CLR 32/11 A3011 RMK AO2 SLP117 T03220106
KAFF - Usaf Academy/Cos, Colorado, USA
Distance from station: NNE 41mi, 66km
Updated: Tue, 20-Aug-2019 9:58am MDT
Clear
Clear
 Wind from N
Wind: N 16 mph , 26 km/h, Gust: 20 mph , 31 km/h
Temperature: 84°F , 29°C
Dew Point: 32°F , 0°C
Humidity: 15%
Barometer: 30.25 inHg , 1024.4 hPa
Clouds: Clear
Visibility: 10 miles , 16 km
2019/08/20 15:58 KAFF 201558Z 01014G17KT 10SM CLR 29/00 A3025 RMK AO2A SLP141 T02930000
 
K4BM - Wilkerson Pass, Colorado, USA
Distance from station: NNW 45mi, 72km
Updated: Tue, 20-Aug-2019 10:54am MDT
Clear
Clear
 Wind from calm
Wind: Calm
Temperature: 68°F , 20°C
Dew Point: 21°F , -6°C
Humidity: 17%
Barometer: 30.72 inHg , 1040.3 hPa
Clouds: Clear
Visibility: 10 miles , 16 km
2019/08/20 16:54 K4BM 201654Z AUTO 00000KT 10SM CLR 20/M06 A3072 RMK AO2
KANK - Salida, Colorado, USA
Distance from station: W 47mi, 75km
Updated: Tue, 20-Aug-2019 10:55am MDT
Clear
Clear
 Wind from N
Wind: N 5 mph , 7 km/h
Temperature: 77°F , 25°C
Dew Point: 30°F , -1°C
Humidity: 18%
Barometer: 30.45 inHg , 1031.2 hPa
Clouds: Clear
Visibility: 10 miles , 16 km
2019/08/20 16:55 KANK 201655Z AUTO 01004KT 10SM CLR 25/M01 A3045 RMK AO1 T02491013
 
KFLY - Co Spngs Meadow, Colorado, USA
Distance from station: NE 48mi, 78km
Updated: Tue, 20-Aug-2019 10:55am MDT
Clear
Clear
 Wind from ESE
Wind: ESE 7 mph , 11 km/h
Temperature: 90°F , 32°C
Dew Point: 34°F , 1°C
Humidity: 14%
Barometer: 30.31 inHg , 1026.4 hPa
Clouds: Clear
Visibility: 10 miles , 16 km
2019/08/20 16:55 KFLY 201655Z AUTO 11006KT 10SM CLR 32/01 A3031 RMK AO2 T03160006
KABH - Ellicott-B Afa, Colorado, USA
Distance from station: ENE 53mi, 85km
Updated: Tue, 20-Aug-2019 10:58am MDT
Clear
Clear
 Wind from ENE
Wind: ENE 6 mph , 9 km/h
Temperature: 86°F , 30°C
Dew Point: 41°F , 5°C
Humidity: 20%
Barometer: 30.25 inHg , 1024.4 hPa
Clouds: Clear
Visibility: 10 miles , 16 km
2019/08/20 16:58 KABH 201658Z AUTO 07005KT 10SM CLR 30/05 A3025 RMK AO2 SLP153 T02970049
 
KAEJ - Buena Vista, Colorado, USA
Distance from station: WNW 56mi, 90km
Updated: Tue, 20-Aug-2019 10:55am MDT
Clear
Clear
 Wind from SE
Wind: SE 3 mph , 6 km/h
Temperature: 75°F , 24°C
Dew Point: 27°F , -3°C
Humidity: 16%
Barometer: 30.42 inHg , 1030.1 hPa
Clouds: Clear
Visibility: 10 miles , 16 km
2019/08/20 16:55 KAEJ 201655Z AUTO 13003KT 10SM CLR 24/M03 A3042 RMK AO2 T02441029
K04V - Saguache Muni, Colorado, USA
Distance from station: WSW 58mi, 93km
Updated: Tue, 20-Aug-2019 10:54am MDT
Clear
Clear
 Wind from calm
Wind: Calm
Temperature: 73°F , 23°C
Dew Point: 36°F , 2°C
Humidity: 25%
Barometer: 30.44 inHg , 1030.8 hPa
Clouds: Clear
Visibility: 10 miles , 16 km
2019/08/20 16:54 K04V 201654Z AUTO 00000KT 10SM CLR 23/02 A3044 RMK AO2 PWINO
 
K7BM - Cottonwood Pass, Colorado, USA
Distance from station: WNW 60mi, 96km
Updated: Tue, 20-Aug-2019 10:48am MDT
Clear
Clear
 Wind from calm
Wind: Calm
Temperature: 73°F , 23°C
Dew Point: 23°F , -5°C
Humidity: 15%
Barometer: 30.58 inHg , 1035.6 hPa
Clouds: Clear
Visibility: 10 miles , 16 km
2019/08/20 16:48 K7BM 201648Z AUTO 00000KT 10SM CLR 23/M05 A3058 RMK AO2
KMNH - Monument/Elbert, Colorado, USA
Distance from station: NNE 61mi, 98km
Updated: Tue, 20-Aug-2019 10:47am MDT
Clear
Clear
 Wind from N
Wind: N 9 mph , 15 km/h, Gust: 16 mph , 26 km/h
Temperature: 81°F , 27°C
Dew Point: 39°F , 4°C
Humidity: 23%
Barometer: 30.33 inHg , 1027.1 hPa
Clouds: Clear
Visibility: 10 miles , 16 km
2019/08/20 16:47 KMNH 201647Z AUTO 35008G14KT 10SM CLR 27/04 A3033 RMK AO2
 
KMYP - Monarch Pass, Colorado, USA
Distance from station: W 61mi, 98km
Updated: Tue, 20-Aug-2019 10:48am MDT
Clear
Clear
 
Temperature: 61°F , 16°C
Dew Point: 23°F , -5°C
Humidity: 23%
Barometer: 30.86 inHg , 1045 hPa
Clouds: Clear
Visibility: 10 miles , 16 km
2019/08/20 16:48 KMYP 201648Z AUTO 10SM CLR 16/M05 A3086 RMK AO2 LTG DSNT SE
KALS - Alamosa, Colorado, USA
Distance from station: SSW 79mi, 127km
Updated: Tue, 20-Aug-2019 10:52am MDT
Clear
Clear
 
Temperature: 73°F , 23°C
Dew Point: 37°F , 3°C
Humidity: 27%
Barometer: 30.41 inHg , 1029.8 hPa
Clouds: Clear
Visibility: 10 miles , 16 km
2019/08/20 16:52 KALS 201652Z AUTO 10SM CLR 23/03 A3041 RMK AO2 SLP197 T02280028
 
KAPA - Denver/Arapahoe, Colorado, USA
Distance from station: NNE 79mi, 128km
Updated: Tue, 20-Aug-2019 10:53am MDT
Mostly cloudy
Mostly cloudy
 Wind from NNE
Wind: NNE 9 mph , 15 km/h
Temperature: 90°F , 32°C
Dew Point: 34°F , 1°C
Humidity: 14%
Barometer: 30.21 inHg , 1023 hPa
Clouds: Mostly cloudy
Visibility: 10 miles , 16 km
Cloud details: Few Clouds 8000 ft
Few Clouds 13000 ft
Mostly cloudy 22000 ft
2019/08/20 16:53 KAPA 201653Z 02008KT 10SM FEW080 FEW130 BKN220 32/01 A3021 RMK AO2 SLP137 T03220006
KRCV - Del Norte, Colorado, USA
Distance from station: SW 81mi, 130km
Updated: Tue, 20-Aug-2019 10:55am MDT
Clear
Clear
 Wind from ESE
Wind: ESE 5 mph , 7 km/h
Temperature: 73°F , 23°C
Dew Point: 34°F , 1°C
Humidity: 23%
Barometer: 30.45 inHg , 1031.2 hPa
Clouds: Clear
Visibility: 10 miles , 16 km
2019/08/20 16:55 KRCV 201655Z AUTO 11004KT 10SM CLR 23/01 A3045 RMK AO2 T02300014
 
KLXV - Leadville, Colorado, USA
Distance from station: NW 81mi, 131km
Updated: Tue, 20-Aug-2019 10:53am MDT
Clear
Clear
 Wind from NNW
Wind: NNW 6 mph , 9 km/h
Temperature: 72°F , 22°C
Dew Point: 27°F , -3°C
Humidity: 19%
Barometer: 30.56 inHg , 1034.9 hPa
Clouds: Clear
Visibility: 10 miles , 16 km
2019/08/20 16:53 KLXV 201653Z AUTO 33005KT 10SM CLR 22/M03 A3056 RMK AO2 SLP153 T02171033
KCCU - Red Cliff Pass, Colorado, USA
Distance from station: NW 88mi, 142km
Updated: Tue, 20-Aug-2019 10:39am MDT
Partly cloudy
Partly cloudy
 
Temperature: 64°F , 18°C
Dew Point: 27°F , -3°C
Humidity: 24%
Barometer: 30.76 inHg , 1041.7 hPa
Clouds: Partly cloudy
Visibility: 10 miles , 16 km
Cloud details: Partly cloudy 8000 ft
2019/08/20 16:39 KCCU 201639Z AUTO 10SM SCT080 18/M03 A3076 RMK AO2